sensor_id;sensor_type;location;lat;lon;timestamp;pressure;altitude;pressure_sealevel;temperature;humidity
5691;BME280;2870;42.680;23.364;2023-05-11T00:00:12;95337.81;;;10.40;84.27
5691;BME280;2870;42.680;23.364;2023-05-11T00:02:39;95341.81;;;10.52;84.64
5691;BME280;2870;42.680;23.364;2023-05-11T00:05:06;95344.84;;;10.70;84.05
5691;BME280;2870;42.680;23.364;2023-05-11T00:07:33;95349.38;;;10.73;84.32
5691;BME280;2870;42.680;23.364;2023-05-11T00:10:00;95342.72;;;10.47;83.86
5691;BME280;2870;42.680;23.364;2023-05-11T00:12:29;95346.31;;;10.55;84.39
5691;BME280;2870;42.680;23.364;2023-05-11T00:14:55;95355.75;;;10.37;84.15
5691;BME280;2870;42.680;23.364;2023-05-11T00:17:22;95348.84;;;10.38;84.37
5691;BME280;2870;42.680;23.364;2023-05-11T00:19:49;95348.22;;;10.24;84.00
5691;BME280;2870;42.680;23.364;2023-05-11T00:22:16;95349.94;;;10.35;83.82
5691;BME280;2870;42.680;23.364;2023-05-11T00:24:43;95357.84;;;10.44;83.47
5691;BME280;2870;42.680;23.364;2023-05-11T00:27:10;95354.41;;;10.30;83.42
5691;BME280;2870;42.680;23.364;2023-05-11T00:29:38;95355.97;;;10.39;83.75
5691;BME280;2870;42.680;23.364;2023-05-11T00:32:05;95347.31;;;10.29;83.31
5691;BME280;2870;42.680;23.364;2023-05-11T00:34:32;95342.63;;;10.32;83.38
5691;BME280;2870;42.680;23.364;2023-05-11T00:36:58;95351.31;;;10.21;83.18
5691;BME280;2870;42.680;23.364;2023-05-11T00:39:25;95353.25;;;10.26;83.09
5691;BME280;2870;42.680;23.364;2023-05-11T00:41:52;95354.00;;;10.26;82.31
5691;BME280;2870;42.680;23.364;2023-05-11T00:44:19;95351.75;;;10.25;82.91
5691;BME280;2870;42.680;23.364;2023-05-11T00:46:48;95357.31;;;10.17;82.92
5691;BME280;2870;42.680;23.364;2023-05-11T00:49:15;95361.72;;;10.33;82.68
5691;BME280;2870;42.680;23.364;2023-05-11T00:51:45;95355.56;;;10.35;81.71
5691;BME280;2870;42.680;23.364;2023-05-11T00:54:13;95358.84;;;10.26;81.87
5691;BME280;2870;42.680;23.364;2023-05-11T00:56:40;95348.78;;;10.02;82.35
5691;BME280;2870;42.680;23.364;2023-05-11T00:59:07;95341.03;;;10.16;82.48
5691;BME280;2870;42.680;23.364;2023-05-11T01:01:34;95358.69;;;10.03;82.22
5691;BME280;2870;42.680;23.364;2023-05-11T01:04:03;95354.03;;;9.77;82.94
5691;BME280;2870;42.680;23.364;2023-05-11T01:06:35;95355.25;;;9.89;83.37
5691;BME280;2870;42.680;23.364;2023-05-11T01:09:12;95355.53;;;9.78;82.58
5691;BME280;2870;42.680;23.364;2023-05-11T01:11:48;95332.38;;;9.77;81.89
5691;BME280;2870;42.680;23.364;2023-05-11T01:14:19;95353.78;;;9.96;81.54
5691;BME280;2870;42.680;23.364;2023-05-11T01:16:51;95347.34;;;9.80;81.48
5691;BME280;2870;42.680;23.364;2023-05-11T01:19:33;95356.75;;;9.90;81.34
5691;BME280;2870;42.680;23.364;2023-05-11T01:22:09;95351.31;;;9.64;81.85
5691;BME280;2870;42.680;23.364;2023-05-11T01:24:47;95348.72;;;9.66;82.16
5691;BME280;2870;42.680;23.364;2023-05-11T01:27:30;95359.53;;;9.62;82.11
5691;BME280;2870;42.680;23.364;2023-05-11T01:30:21;95347.63;;;9.69;82.44
5691;BME280;2870;42.680;23.364;2023-05-11T01:32:52;95355.53;;;9.78;81.89
5691;BME280;2870;42.680;23.364;2023-05-11T01:35:22;95357.78;;;9.79;82.02
5691;BME280;2870;42.680;23.364;2023-05-11T01:37:54;95358.63;;;9.88;82.61
5691;BME280;2870;42.680;23.364;2023-05-11T01:40:25;95357.44;;;9.83;81.91
5691;BME280;2870;42.680;23.364;2023-05-11T01:42:58;95353.47;;;9.99;81.82
5691;BME280;2870;42.680;23.364;2023-05-11T01:45:27;95360.28;;;9.91;81.99
5691;BME280;2870;42.680;23.364;2023-05-11T01:48:01;95350.28;;;10.03;81.65
5691;BME280;2870;42.680;23.364;2023-05-11T01:50:31;95359.75;;;9.92;81.37
5691;BME280;2870;42.680;23.364;2023-05-11T01:52:59;95358.94;;;9.84;81.94
5691;BME280;2870;42.680;23.364;2023-05-11T01:55:28;95352.56;;;9.76;81.86
5691;BME280;2870;42.680;23.364;2023-05-11T01:57:57;95356.16;;;9.84;81.88
5691;BME280;2870;42.680;23.364;2023-05-11T02:00:26;95364.41;;;9.90;81.49
5691;BME280;2870;42.680;23.364;2023-05-11T02:02:54;95364.75;;;9.86;81.34
5691;BME280;2870;42.680;23.364;2023-05-11T02:05:22;95361.34;;;9.80;81.49
5691;BME280;2870;42.680;23.364;2023-05-11T02:07:51;95359.00;;;9.92;81.65
5691;BME280;2870;42.680;23.364;2023-05-11T02:10:21;95354.25;;;10.07;81.71
5691;BME280;2870;42.680;23.364;2023-05-11T02:12:52;95356.16;;;10.13;82.26
5691;BME280;2870;42.680;23.364;2023-05-11T02:15:20;95358.19;;;10.12;81.92
5691;BME280;2870;42.680;23.364;2023-05-11T02:17:50;95359.44;;;10.03;81.69
5691;BME280;2870;42.680;23.364;2023-05-11T02:20:18;95360.00;;;9.73;81.85
5691;BME280;2870;42.680;23.364;2023-05-11T02:22:46;95362.00;;;9.94;81.53
5691;BME280;2870;42.680;23.364;2023-05-11T02:25:14;95349.84;;;9.91;81.42
5691;BME280;2870;42.680;23.364;2023-05-11T02:27:42;95349.38;;;10.08;81.28
5691;BME280;2870;42.680;23.364;2023-05-11T02:30:09;95351.19;;;9.98;81.21
5691;BME280;2870;42.680;23.364;2023-05-11T02:32:42;95345.03;;;9.71;82.35
5691;BME280;2870;42.680;23.364;2023-05-11T02:35:16;95348.50;;;9.64;82.47
5691;BME280;2870;42.680;23.364;2023-05-11T02:37:45;95348.88;;;9.60;82.52
5691;BME280;2870;42.680;23.364;2023-05-11T02:40:15;95349.06;;;9.83;82.61
5691;BME280;2870;42.680;23.364;2023-05-11T02:42:43;95354.03;;;9.77;82.28
5691;BME280;2870;42.680;23.364;2023-05-11T02:45:13;95356.75;;;9.90;82.05
5691;BME280;2870;42.680;23.364;2023-05-11T02:47:44;95349.94;;;9.78;82.02
5691;BME280;2870;42.680;23.364;2023-05-11T02:50:13;95347.34;;;9.80;82.79
5691;BME280;2870;42.680;23.364;2023-05-11T02:52:45;95361.16;;;9.78;82.51
5691;BME280;2870;42.680;23.364;2023-05-11T02:55:14;95355.69;;;9.51;83.06
5691;BME280;2870;42.680;23.364;2023-05-11T02:57:42;95345.53;;;9.41;83.21
5691;BME280;2870;42.680;23.364;2023-05-11T03:00:10;95340.75;;;9.49;83.03
5691;BME280;2870;42.680;23.364;2023-05-11T03:02:37;95346.50;;;9.43;83.26
5691;BME280;2870;42.680;23.364;2023-05-11T03:05:04;95339.88;;;9.54;83.36
5691;BME280;2870;42.680;23.364;2023-05-11T03:07:33;95347.38;;;9.38;84.05
5691;BME280;2870;42.680;23.364;2023-05-11T03:10:01;95338.38;;;9.32;84.63
5691;BME280;2870;42.680;23.364;2023-05-11T03:12:29;95342.75;;;9.20;84.57
5691;BME280;2870;42.680;23.364;2023-05-11T03:14:59;95338.03;;;9.15;84.81
5691;BME280;2870;42.680;23.364;2023-05-11T03:17:27;95344.94;;;9.14;85.27
5691;BME280;2870;42.680;23.364;2023-05-11T03:19:55;95341.53;;;9.08;85.52
5691;BME280;2870;42.680;23.364;2023-05-11T03:22:24;95341.25;;;8.85;86.88
5691;BME280;2870;42.680;23.364;2023-05-11T03:24:52;95338.72;;;9.08;86.51
5691;BME280;2870;42.680;23.364;2023-05-11T03:27:20;95346.28;;;8.99;86.95
5691;BME280;2870;42.680;23.364;2023-05-11T03:29:49;95344.78;;;8.98;86.44
5691;BME280;2870;42.680;23.364;2023-05-11T03:32:18;95348.34;;;9.20;85.70
5691;BME280;2870;42.680;23.364;2023-05-11T03:34:44;95350.09;;;9.10;86.26
5691;BME280;2870;42.680;23.364;2023-05-11T03:37:12;95356.59;;;9.25;86.12
5691;BME280;2870;42.680;23.364;2023-05-11T03:39:43;95353.72;;;9.18;86.51
5691;BME280;2870;42.680;23.364;2023-05-11T03:42:13;95344.16;;;9.34;85.84
5691;BME280;2870;42.680;23.364;2023-05-11T03:44:42;95351.75;;;9.26;86.15
5691;BME280;2870;42.680;23.364;2023-05-11T03:47:12;95358.38;;;9.36;86.32
5691;BME280;2870;42.680;23.364;2023-05-11T03:49:41;95354.59;;;9.13;86.48
5691;BME280;2870;42.680;23.364;2023-05-11T03:52:09;95358.38;;;9.15;87.06
5691;BME280;2870;42.680;23.364;2023-05-11T03:54:36;95361.72;;;9.35;86.40
5691;BME280;2870;42.680;23.364;2023-05-11T03:57:03;95357.41;;;9.34;86.37
5691;BME280;2870;42.680;23.364;2023-05-11T03:59:31;95360.19;;;9.13;87.14
5691;BME280;2870;42.680;23.364;2023-05-11T04:01:58;95361.03;;;9.21;87.24
5691;BME280;2870;42.680;23.364;2023-05-11T04:04:27;95371.00;;;9.09;87.98
5691;BME280;2870;42.680;23.364;2023-05-11T04:06:54;95366.06;;;9.01;88.88
5691;BME280;2870;42.680;23.364;2023-05-11T04:09:21;95364.78;;;9.02;88.62
5691;BME280;2870;42.680;23.364;2023-05-11T04:11:48;95361.75;;;9.00;89.37
5691;BME280;2870;42.680;23.364;2023-05-11T04:14:15;95373.19;;;9.02;89.22
5691;BME280;2870;42.680;23.364;2023-05-11T04:16:44;95369.91;;;9.12;88.72
5691;BME280;2870;42.680;23.364;2023-05-11T04:19:11;95367.72;;;9.18;88.83
5691;BME280;2870;42.680;23.364;2023-05-11T04:21:38;95377.16;;;9.28;88.78
5691;BME280;2870;42.680;23.364;2023-05-11T04:24:05;95370.59;;;9.25;88.70
5691;BME280;2870;42.680;23.364;2023-05-11T04:26:32;95375.97;;;9.23;88.88
5691;BME280;2870;42.680;23.364;2023-05-11T04:28:58;95366.47;;;9.06;89.92
5691;BME280;2870;42.680;23.364;2023-05-11T04:31:25;95364.03;;;9.02;90.37
5691;BME280;2870;42.680;23.364;2023-05-11T04:33:56;95377.56;;;9.32;89.43
5691;BME280;2870;42.680;23.364;2023-05-11T04:36:22;95380.03;;;9.01;90.25
5691;BME280;2870;42.680;23.364;2023-05-11T04:38:49;95376.16;;;9.05;90.68
5691;BME280;2870;42.680;23.364;2023-05-11T04:41:17;95377.47;;;9.24;89.92
5691;BME280;2870;42.680;23.364;2023-05-11T04:43:44;95386.00;;;9.19;90.54
5691;BME280;2870;42.680;23.364;2023-05-11T04:46:10;95379.41;;;9.09;90.97
5691;BME280;2870;42.680;23.364;2023-05-11T04:48:37;95388.28;;;9.20;90.83
5691;BME280;2870;42.680;23.364;2023-05-11T04:51:06;95383.44;;;9.21;90.82
5691;BME280;2870;42.680;23.364;2023-05-11T04:53:32;95381.03;;;9.04;91.36
5691;BME280;2870;42.680;23.364;2023-05-11T04:55:59;95384.69;;;8.99;91.26
5691;BME280;2870;42.680;23.364;2023-05-11T04:58:26;95389.88;;;8.95;92.08
5691;BME280;2870;42.680;23.364;2023-05-11T05:00:52;95394.81;;;9.23;91.75
5691;BME280;2870;42.680;23.364;2023-05-11T05:03:20;95388.59;;;9.17;91.62
5691;BME280;2870;42.680;23.364;2023-05-11T05:05:46;95390.47;;;9.01;91.94
5691;BME280;2870;42.680;23.364;2023-05-11T05:08:14;95396.44;;;9.18;91.41
5691;BME280;2870;42.680;23.364;2023-05-11T05:10:42;95397.34;;;9.13;91.57
5691;BME280;2870;42.680;23.364;2023-05-11T05:13:08;95397.63;;;9.23;91.72
5691;BME280;2870;42.680;23.364;2023-05-11T05:15:35;95403.16;;;9.15;91.77
5691;BME280;2870;42.680;23.364;2023-05-11T05:18:02;95403.16;;;9.15;91.65
5691;BME280;2870;42.680;23.364;2023-05-11T05:20:30;95406.38;;;8.85;92.84
5691;BME280;2870;42.680;23.364;2023-05-11T05:22:57;95403.84;;;8.95;93.32
5691;BME280;2870;42.680;23.364;2023-05-11T05:25:25;95397.84;;;9.25;92.27
5691;BME280;2870;42.680;23.364;2023-05-11T05:27:52;95407.47;;;9.37;91.03
5691;BME280;2870;42.680;23.364;2023-05-11T05:30:19;95401.63;;;9.48;90.16
5691;BME280;2870;42.680;23.364;2023-05-11T05:32:46;95413.22;;;9.52;90.71
5691;BME280;2870;42.680;23.364;2023-05-11T05:35:12;95413.47;;;9.41;89.59
5691;BME280;2870;42.680;23.364;2023-05-11T05:37:39;95415.88;;;9.58;89.80
5691;BME280;2870;42.680;23.364;2023-05-11T05:40:07;95410.81;;;9.56;90.05
5691;BME280;2870;42.680;23.364;2023-05-11T05:42:36;95414.88;;;9.48;90.12
5691;BME280;2870;42.680;23.364;2023-05-11T05:45:03;95419.72;;;9.47;89.95
5691;BME280;2870;42.680;23.364;2023-05-11T05:47:30;95413.34;;;9.47;89.82
5691;BME280;2870;42.680;23.364;2023-05-11T05:49:57;95418.41;;;9.48;90.02
5691;BME280;2870;42.680;23.364;2023-05-11T05:52:24;95418.06;;;9.31;90.77
5691;BME280;2870;42.680;23.364;2023-05-11T05:54:50;95418.59;;;8.95;91.90
5691;BME280;2870;42.680;23.364;2023-05-11T05:57:17;95428.63;;;9.25;91.12
5691;BME280;2870;42.680;23.364;2023-05-11T05:59:46;95431.31;;;9.31;91.37
5691;BME280;2870;42.680;23.364;2023-05-11T06:02:12;95417.72;;;9.00;90.89
5691;BME280;2870;42.680;23.364;2023-05-11T06:04:39;95427.97;;;8.85;92.66
5691;BME280;2870;42.680;23.364;2023-05-11T06:07:06;95427.16;;;9.11;92.09
5691;BME280;2870;42.680;23.364;2023-05-11T06:09:33;95434.81;;;9.10;91.60
5691;BME280;2870;42.680;23.364;2023-05-11T06:12:00;95427.47;;;9.41;91.38
5691;BME280;2870;42.680;23.364;2023-05-11T06:14:26;95429.19;;;9.44;90.02
5691;BME280;2870;42.680;23.364;2023-05-11T06:16:55;95425.41;;;9.21;91.24
5691;BME280;2870;42.680;23.364;2023-05-11T06:19:21;95431.25;;;9.44;90.64
5691;BME280;2870;42.680;23.364;2023-05-11T06:21:48;95428.50;;;9.51;90.12
5691;BME280;2870;42.680;23.364;2023-05-11T06:24:15;95438.09;;;9.56;89.45
5691;BME280;2870;42.680;23.364;2023-05-11T06:26:41;95441.78;;;9.72;89.43
5691;BME280;2870;42.680;23.364;2023-05-11T06:29:08;95434.88;;;9.52;89.46
5691;BME280;2870;42.680;23.364;2023-05-11T06:31:35;95442.50;;;9.51;89.35
5691;BME280;2870;42.680;23.364;2023-05-11T06:34:03;95452.63;;;9.54;89.18
5691;BME280;2870;42.680;23.364;2023-05-11T06:36:30;95446.94;;;9.47;89.25
5691;BME280;2870;42.680;23.364;2023-05-11T06:38:57;95454.13;;;9.55;88.83
5691;BME280;2870;42.680;23.364;2023-05-11T06:41:24;95446.69;;;9.58;89.13
5691;BME280;2870;42.680;23.364;2023-05-11T06:43:51;95455.38;;;9.68;88.74
5691;BME280;2870;42.680;23.364;2023-05-11T06:46:17;95454.94;;;9.64;87.57
5691;BME280;2870;42.680;23.364;2023-05-11T06:48:44;95461.66;;;9.81;86.77
5691;BME280;2870;42.680;23.364;2023-05-11T06:51:12;95450.16;;;9.51;87.18
5691;BME280;2870;42.680;23.364;2023-05-11T06:53:39;95455.28;;;9.39;88.12
5691;BME280;2870;42.680;23.364;2023-05-11T06:56:06;95454.69;;;9.54;86.76
5691;BME280;2870;42.680;23.364;2023-05-11T06:58:33;95448.19;;;9.80;86.80
5691;BME280;2870;42.680;23.364;2023-05-11T07:00:59;95447.91;;;9.49;87.24
5691;BME280;2870;42.680;23.364;2023-05-11T07:03:29;95452.63;;;9.54;87.23
5691;BME280;2870;42.680;23.364;2023-05-11T07:05:56;95449.84;;;9.54;86.37
5691;BME280;2870;42.680;23.364;2023-05-11T07:08:24;95463.22;;;9.90;85.75
5691;BME280;2870;42.680;23.364;2023-05-11T07:10:51;95454.13;;;9.97;85.78
5691;BME280;2870;42.680;23.364;2023-05-11T07:13:18;95459.19;;;9.78;85.87
5691;BME280;2870;42.680;23.364;2023-05-11T07:15:44;95454.34;;;9.99;85.03
5691;BME280;2870;42.680;23.364;2023-05-11T07:18:11;95457.84;;;10.21;84.20
5691;BME280;2870;42.680;23.364;2023-05-11T07:20:38;95464.31;;;10.29;83.74
5691;BME280;2870;42.680;23.364;2023-05-11T07:23:05;95453.56;;;10.41;82.86
5691;BME280;2870;42.680;23.364;2023-05-11T07:25:33;95449.31;;;10.26;82.13
5691;BME280;2870;42.680;23.364;2023-05-11T07:28:00;95448.28;;;10.37;81.24
5691;BME280;2870;42.680;23.364;2023-05-11T07:30:27;95461.50;;;10.57;80.50
5691;BME280;2870;42.680;23.364;2023-05-11T07:32:54;95460.06;;;10.15;80.07
5691;BME280;2870;42.680;23.364;2023-05-11T07:35:21;95460.66;;;10.42;79.13
5691;BME280;2870;42.680;23.364;2023-05-11T07:37:48;95457.28;;;10.43;78.74
5691;BME280;2870;42.680;23.364;2023-05-11T07:40:15;95463.50;;;10.78;77.96
5691;BME280;2870;42.680;23.364;2023-05-11T07:42:43;95462.63;;;10.91;77.78
5691;BME280;2870;42.680;23.364;2023-05-11T07:45:10;95448.84;;;10.72;77.51
5691;BME280;2870;42.680;23.364;2023-05-11T07:47:37;95463.22;;;11.04;77.09
5691;BME280;2870;42.680;23.364;2023-05-11T07:50:05;95459.88;;;11.06;77.86
5691;BME280;2870;42.680;23.364;2023-05-11T07:52:32;95468.41;;;10.93;78.42
5691;BME280;2870;42.680;23.364;2023-05-11T07:54:58;95466.56;;;10.95;78.58
5691;BME280;2870;42.680;23.364;2023-05-11T07:57:25;95457.75;;;10.91;79.02
5691;BME280;2870;42.680;23.364;2023-05-11T07:59:54;95470.19;;;10.67;78.93
5691;BME280;2870;42.680;23.364;2023-05-11T08:02:21;95465.94;;;10.81;79.60
5691;BME280;2870;42.680;23.364;2023-05-11T08:04:47;95462.19;;;11.23;78.48
5691;BME280;2870;42.680;23.364;2023-05-11T08:07:14;95461.34;;;11.58;76.99
5691;BME280;2870;42.680;23.364;2023-05-11T08:09:41;95458.00;;;11.75;75.28
5691;BME280;2870;42.680;23.364;2023-05-11T08:12:08;95462.00;;;12.10;73.63
5691;BME280;2870;42.680;23.364;2023-05-11T08:14:35;95461.97;;;12.56;72.47
5691;BME280;2870;42.680;23.364;2023-05-11T08:17:03;95466.09;;;12.47;71.95
5691;BME280;2870;42.680;23.364;2023-05-11T08:19:30;95462.38;;;12.07;72.55
5691;BME280;2870;42.680;23.364;2023-05-11T08:21:57;95472.03;;;11.60;72.85
5691;BME280;2870;42.680;23.364;2023-05-11T08:24:23;95473.25;;;12.18;72.63
5691;BME280;2870;42.680;23.364;2023-05-11T08:26:50;95462.38;;;12.30;72.65
5691;BME280;2870;42.680;23.364;2023-05-11T08:29:17;95447.72;;;12.46;71.04
5691;BME280;2870;42.680;23.364;2023-05-11T08:31:44;95457.28;;;12.51;72.42
5691;BME280;2870;42.680;23.364;2023-05-11T08:34:12;95455.94;;;12.67;71.00
5691;BME280;2870;42.680;23.364;2023-05-11T08:36:39;95463.44;;;12.65;70.67
5691;BME280;2870;42.680;23.364;2023-05-11T08:39:05;95456.94;;;12.09;72.26
5691;BME280;2870;42.680;23.364;2023-05-11T08:41:33;95461.47;;;12.98;70.17
5691;BME280;2870;42.680;23.364;2023-05-11T08:44:00;95461.63;;;13.56;69.01
5691;BME280;2870;42.680;23.364;2023-05-11T08:46:29;95468.28;;;12.80;68.86
5691;BME280;2870;42.680;23.364;2023-05-11T08:48:56;95465.31;;;12.62;70.28
5691;BME280;2870;42.680;23.364;2023-05-11T08:51:25;95460.66;;;12.42;70.27
5691;BME280;2870;42.680;23.364;2023-05-11T08:53:52;95459.25;;;12.96;69.99
5691;BME280;2870;42.680;23.364;2023-05-11T08:56:23;95459.69;;;12.78;68.89
5691;BME280;2870;42.680;23.364;2023-05-11T08:58:53;95457.84;;;12.50;69.45
5691;BME280;2870;42.680;23.364;2023-05-11T09:01:21;95456.38;;;12.10;71.79
5691;BME280;2870;42.680;23.364;2023-05-11T09:03:49;95454.84;;;12.25;72.47
5691;BME280;2870;42.680;23.364;2023-05-11T09:06:17;95454.44;;;12.66;72.20
5691;BME280;2870;42.680;23.364;2023-05-11T09:08:46;95455.78;;;12.50;70.47
5691;BME280;2870;42.680;23.364;2023-05-11T09:11:13;95455.63;;;12.48;71.81
5691;BME280;2870;42.680;23.364;2023-05-11T09:13:40;95452.56;;;12.69;72.05
5691;BME280;2870;42.680;23.364;2023-05-11T09:16:07;95452.81;;;12.48;72.79
5691;BME280;2870;42.680;23.364;2023-05-11T09:18:34;95442.44;;;12.58;72.51
5691;BME280;2870;42.680;23.364;2023-05-11T09:21:01;95445.47;;;12.30;73.66
5691;BME280;2870;42.680;23.364;2023-05-11T09:23:28;95451.50;;;12.26;73.57
5691;BME280;2870;42.680;23.364;2023-05-11T09:25:56;95447.28;;;12.73;71.74
5691;BME280;2870;42.680;23.364;2023-05-11T09:28:24;95455.53;;;12.79;71.04
5691;BME280;2870;42.680;23.364;2023-05-11T09:30:51;95456.72;;;12.60;72.77
5691;BME280;2870;42.680;23.364;2023-05-11T09:33:21;95440.97;;;12.42;72.80
5691;BME280;2870;42.680;23.364;2023-05-11T09:35:49;95456.13;;;12.62;72.22
5691;BME280;2870;42.680;23.364;2023-05-11T09:38:16;95447.88;;;11.72;75.42
5691;BME280;2870;42.680;23.364;2023-05-11T09:40:55;95465.72;;;11.82;75.11
5691;BME280;2870;42.680;23.364;2023-05-11T09:43:23;95450.34;;;11.76;75.74
5691;BME280;2870;42.680;23.364;2023-05-11T09:45:52;95461.53;;;11.68;75.60
5691;BME280;2870;42.680;23.364;2023-05-11T09:48:24;95462.38;;;11.99;75.84
5691;BME280;2870;42.680;23.364;2023-05-11T09:50:58;95450.34;;;11.91;75.90
5691;BME280;2870;42.680;23.364;2023-05-11T09:53:33;95441.69;;;11.74;75.85
5691;BME280;2870;42.680;23.364;2023-05-11T09:56:01;95445.31;;;12.20;74.65
5691;BME280;2870;42.680;23.364;2023-05-11T09:58:44;95408.88;;;12.60;73.55
5691;BME280;2870;42.680;23.364;2023-05-11T10:01:11;95436.38;;;12.85;72.72
5691;BME280;2870;42.680;23.364;2023-05-11T10:03:45;95421.09;;;12.40;72.97
5691;BME280;2870;42.680;23.364;2023-05-11T10:06:12;95425.94;;;12.62;72.49
5691;BME280;2870;42.680;23.364;2023-05-11T10:08:39;95420.50;;;13.12;70.84
5691;BME280;2870;42.680;23.364;2023-05-11T10:11:08;95421.25;;;13.13;69.77
5691;BME280;2870;42.680;23.364;2023-05-11T10:13:35;95431.47;;;12.93;70.52
5691;BME280;2870;42.680;23.364;2023-05-11T10:16:03;95418.56;;;13.30;69.72
5691;BME280;2870;42.680;23.364;2023-05-11T10:18:30;95413.09;;;13.65;68.07
5691;BME280;2870;42.680;23.364;2023-05-11T10:20:58;95378.25;;;12.64;69.00
5691;BME280;2870;42.680;23.364;2023-05-11T10:23:25;95412.41;;;12.68;70.79
5691;BME280;2870;42.680;23.364;2023-05-11T10:25:53;95418.03;;;12.68;72.24
5691;BME280;2870;42.680;23.364;2023-05-11T10:28:21;95410.53;;;12.63;71.19
5691;BME280;2870;42.680;23.364;2023-05-11T10:30:48;95402.50;;;13.08;69.42
5691;BME280;2870;42.680;23.364;2023-05-11T10:33:15;95415.91;;;13.32;69.69
5691;BME280;2870;42.680;23.364;2023-05-11T10:35:44;95405.06;;;13.29;68.75
5691;BME280;2870;42.680;23.364;2023-05-11T10:38:11;95401.09;;;13.64;68.67
5691;BME280;2870;42.680;23.364;2023-05-11T10:40:41;95368.22;;;14.26;64.31
5691;BME280;2870;42.680;23.364;2023-05-11T10:43:34;95395.31;;;14.29;63.99
5691;BME280;2870;42.680;23.364;2023-05-11T10:46:15;95400.47;;;13.73;66.85
5691;BME280;2870;42.680;23.364;2023-05-11T10:52:14;95402.56;;;14.57;64.83
5691;BME280;2870;42.680;23.364;2023-05-11T10:54:54;95397.69;;;13.66;65.33
5691;BME280;2870;42.680;23.364;2023-05-11T10:57:43;95392.31;;;13.52;67.35
5691;BME280;2870;42.680;23.364;2023-05-11T11:03:35;95398.06;;;14.12;66.73
5691;BME280;2870;42.680;23.364;2023-05-11T11:06:02;95390.94;;;13.61;69.50
5691;BME280;2870;42.680;23.364;2023-05-11T11:08:53;95391.31;;;13.33;68.12
5691;BME280;2870;42.680;23.364;2023-05-11T11:11:30;95397.28;;;13.69;69.10
5691;BME280;2870;42.680;23.364;2023-05-11T11:13:59;95381.63;;;13.51;68.24
5691;BME280;2870;42.680;23.364;2023-05-11T11:16:28;95388.47;;;13.40;68.55
5691;BME280;2870;42.680;23.364;2023-05-11T11:22:01;95358.91;;;13.16;69.08
5691;BME280;2870;42.680;23.364;2023-05-11T11:24:44;95362.81;;;13.53;68.75
5691;BME280;2870;42.680;23.364;2023-05-11T11:27:11;95383.72;;;13.75;67.85
5691;BME280;2870;42.680;23.364;2023-05-11T11:29:39;95382.16;;;13.57;68.55
5691;BME280;2870;42.680;23.364;2023-05-11T11:32:24;95384.50;;;13.93;68.50
5691;BME280;2870;42.680;23.364;2023-05-11T11:34:52;95362.06;;;14.03;66.55
5691;BME280;2870;42.680;23.364;2023-05-11T11:37:21;95393.34;;;14.57;66.73
5691;BME280;2870;42.680;23.364;2023-05-11T11:39:50;95387.88;;;14.76;64.13
5691;BME280;2870;42.680;23.364;2023-05-11T11:42:32;95379.22;;;14.57;64.82
5691;BME280;2870;42.680;23.364;2023-05-11T11:45:25;95380.72;;;14.93;63.42
5691;BME280;2870;42.680;23.364;2023-05-11T11:48:15;95380.66;;;14.48;64.29
5691;BME280;2870;42.680;23.364;2023-05-11T11:50:47;95377.97;;;14.68;63.92
5691;BME280;2870;42.680;23.364;2023-05-11T11:56:42;95375.56;;;14.04;64.17
5691;BME280;2870;42.680;23.364;2023-05-11T11:59:11;95374.34;;;14.15;64.87
5691;BME280;2870;42.680;23.364;2023-05-11T12:01:40;95368.63;;;13.81;66.92
5691;BME280;2870;42.680;23.364;2023-05-11T12:04:48;95373.50;;;13.55;67.83
5691;BME280;2870;42.680;23.364;2023-05-11T12:07:18;95371.06;;;13.26;69.03
5691;BME280;2870;42.680;23.364;2023-05-11T12:09:45;95330.84;;;13.34;68.55
5691;BME280;2870;42.680;23.364;2023-05-11T12:12:16;95367.47;;;13.84;68.24
5691;BME280;2870;42.680;23.364;2023-05-11T12:14:43;95367.16;;;13.79;66.71
5691;BME280;2870;42.680;23.364;2023-05-11T12:17:15;95371.78;;;14.10;66.89
5691;BME280;2870;42.680;23.364;2023-05-11T12:19:42;95369.09;;;13.69;67.82
5691;BME280;2870;42.680;23.364;2023-05-11T12:22:11;95375.56;;;13.62;66.98
5691;BME280;2870;42.680;23.364;2023-05-11T12:24:39;95355.00;;;13.69;67.62
5691;BME280;2870;42.680;23.364;2023-05-11T12:27:06;95361.97;;;13.68;68.11
5691;BME280;2870;42.680;23.364;2023-05-11T12:29:35;95351.94;;;13.50;68.10
5691;BME280;2870;42.680;23.364;2023-05-11T12:32:02;95350.50;;;13.66;68.61
5691;BME280;2870;42.680;23.364;2023-05-11T12:34:29;95346.06;;;14.23;66.93
5691;BME280;2870;42.680;23.364;2023-05-11T12:36:55;95337.59;;;14.40;67.38
5691;BME280;2870;42.680;23.364;2023-05-11T12:39:24;95344.34;;;14.79;64.41
5691;BME280;2870;42.680;23.364;2023-05-11T12:41:52;95337.34;;;14.80;62.82
5691;BME280;2870;42.680;23.364;2023-05-11T12:44:22;95328.97;;;14.73;64.35
5691;BME280;2870;42.680;23.364;2023-05-11T12:46:50;95333.81;;;14.63;63.40
5691;BME280;2870;42.680;23.364;2023-05-11T12:49:18;95327.88;;;14.85;63.16
5691;BME280;2870;42.680;23.364;2023-05-11T12:51:50;95332.59;;;13.96;65.76
5691;BME280;2870;42.680;23.364;2023-05-11T12:54:29;95326.41;;;14.15;65.53
5691;BME280;2870;42.680;23.364;2023-05-11T12:56:57;95328.72;;;14.26;65.75
5691;BME280;2870;42.680;23.364;2023-05-11T12:59:34;95316.00;;;14.18;65.76
5691;BME280;2870;42.680;23.364;2023-05-11T13:02:11;95322.53;;;13.86;66.60
5691;BME280;2870;42.680;23.364;2023-05-11T13:04:40;95308.13;;;13.32;67.42
5691;BME280;2870;42.680;23.364;2023-05-11T13:07:07;95313.66;;;13.47;67.53
5691;BME280;2870;42.680;23.364;2023-05-11T13:09:34;95312.16;;;13.88;67.06
5691;BME280;2870;42.680;23.364;2023-05-11T13:12:12;95304.31;;;14.21;66.03
5691;BME280;2870;42.680;23.364;2023-05-11T13:14:40;95307.44;;;13.73;66.68
5691;BME280;2870;42.680;23.364;2023-05-11T13:17:07;95308.81;;;13.65;66.84
5691;BME280;2870;42.680;23.364;2023-05-11T13:19:35;95312.91;;;13.89;66.43
5691;BME280;2870;42.680;23.364;2023-05-11T13:22:04;95310.00;;;13.54;66.69
5691;BME280;2870;42.680;23.364;2023-05-11T13:24:31;95312.38;;;13.65;67.66
5691;BME280;2870;42.680;23.364;2023-05-11T13:26:58;95300.63;;;13.76;67.11
5691;BME280;2870;42.680;23.364;2023-05-11T13:29:25;95305.47;;;14.01;66.36
5691;BME280;2870;42.680;23.364;2023-05-11T13:31:52;95308.25;;;13.84;67.82
5691;BME280;2870;42.680;23.364;2023-05-11T13:34:20;95307.31;;;14.23;66.45
5691;BME280;2870;42.680;23.364;2023-05-11T13:36:48;95308.00;;;14.49;65.97